Sao Mateus do Maranhao, Brazil
Current Conditions -  °F | °C
As of 10:00 PM on Monday 22 Dec 2014 (Local Time) from SBSL Reporting Station
Clear Clear  
Wind Chill: 81°   Ceiling: Unl
Heat Index: 84°   Visibility: 6mi
Dew Point: 70°   Wind: 13mph
Humidity: 70%   Direction: 60°ENE
Pressure: 29.85"   Gusts: NA
Location:  4.04°S, 44.47°W
Report Text: SBSL 230100Z 06011KT CAVOK 27/21 Q1011
Loading
Personal Weather Stations






























Interactive Weather Map New forecast layout! Learn more

10-Day Weather Forecast

Advertisements
Track Severe Weather on mobile